createdAt,value
2019-04-11T00:01:44.740Z,94241.50
2019-04-11T00:04:10.596Z,94242.66
2019-04-11T00:06:41.849Z,94244.77
2019-04-11T00:09:16.709Z,94231.92
2019-04-11T00:11:48.369Z,94231.11
2019-04-11T00:14:21.992Z,94233.56
2019-04-11T00:16:53.472Z,94241.81
2019-04-11T00:19:24.927Z,94246.36
2019-04-11T00:21:57.215Z,94248.30
2019-04-11T00:24:29.205Z,94250.86
2019-04-11T00:27:00.973Z,94256.41
2019-04-11T00:29:32.622Z,94258.39
2019-04-11T00:32:06.518Z,94248.79
2019-04-11T00:34:37.441Z,94247.34
2019-04-11T00:37:09.101Z,94248.48
2019-04-11T00:39:40.841Z,94246.52
2019-04-11T00:42:12.516Z,94248.64
2019-04-11T00:44:45.158Z,94244.59
2019-04-11T00:47:17.217Z,94246.20
2019-04-11T00:49:48.794Z,94242.47
2019-04-11T00:52:20.674Z,94233.86
2019-04-11T00:54:53.140Z,94239.72
2019-04-11T00:57:25.201Z,94240.72
2019-04-11T00:59:56.859Z,94241.84
2019-04-11T01:02:29.538Z,94240.39
2019-04-11T01:05:01.358Z,94241.36
2019-04-11T01:07:35.239Z,94237.13
2019-04-11T01:10:10.219Z,94241.19
2019-04-11T01:12:42.947Z,94246.70
2019-04-11T01:15:17.463Z,94243.30
2019-04-11T01:17:49.725Z,94243.16
2019-04-11T01:20:21.638Z,94250.61
2019-04-11T01:22:52.921Z,94246.70
2019-04-11T01:25:24.454Z,94250.27
2019-04-11T01:27:56.422Z,94242.12
2019-04-11T01:30:38.607Z,94246.03
2019-04-11T01:33:10.853Z,94243.12
2019-04-11T01:35:43.646Z,94242.46
2019-04-11T01:38:15.236Z,94238.90
2019-04-11T01:40:47.728Z,94240.83
2019-04-11T01:43:19.845Z,94244.09
2019-04-11T01:45:51.815Z,94236.14
2019-04-11T01:48:45.891Z,94232.38
2019-04-11T01:51:17.890Z,94231.27
2019-04-11T01:53:49.499Z,94233.69
2019-04-11T01:56:21.131Z,94237.40
2019-04-11T01:58:53.119Z,94240.35
2019-04-11T02:01:32.705Z,94244.05
2019-04-11T02:04:11.952Z,94244.28
2019-04-11T02:06:45.782Z,94245.81
2019-04-11T02:09:18.316Z,94255.77
2019-04-11T02:11:50.029Z,94240.03
2019-04-11T02:14:22.655Z,94248.92
2019-04-11T02:16:54.570Z,94249.38
2019-04-11T02:19:26.001Z,94242.17
2019-04-11T02:22:08.921Z,94245.90
2019-04-11T02:24:47.989Z,94252.20
2019-04-11T02:27:23.310Z,94255.77
2019-04-11T02:29:55.254Z,94254.60
2019-04-11T02:32:29.015Z,94249.55
2019-04-11T02:35:02.469Z,94256.36
2019-04-11T02:37:34.324Z,94252.95
2019-04-11T02:40:08.165Z,94251.66
2019-04-11T02:42:41.041Z,94248.44
2019-04-11T02:45:25.166Z,94252.79
2019-04-11T02:47:48.378Z,94253.63
2019-04-11T02:50:21.981Z,94256.80
2019-04-11T02:52:53.014Z,94255.84
2019-04-11T02:55:25.186Z,94257.73
2019-04-11T02:57:59.111Z,94256.14
2019-04-11T03:00:31.467Z,94259.20
2019-04-11T03:03:05.688Z,94265.25
2019-04-11T03:05:39.199Z,94264.36
2019-04-11T03:08:13.933Z,94264.41
2019-04-11T03:10:45.507Z,94265.22
2019-04-11T03:13:18.928Z,94263.50
2019-04-11T03:16:07.197Z,94265.50
2019-04-11T03:18:43.223Z,94263.58
2019-04-11T03:21:02.837Z,94264.22
2019-04-11T03:23:35.443Z,94263.46
2019-04-11T03:26:09.657Z,94257.30
2019-04-11T03:28:42.541Z,94268.98
2019-04-11T03:31:50.544Z,94271.10
2019-04-11T03:37:06.810Z,94286.92
2019-04-11T03:39:15.407Z,94288.42
2019-04-11T03:41:48.945Z,94294.41
2019-04-11T03:44:13.508Z,94300.77
2019-04-11T03:46:49.592Z,94311.34
2019-04-11T03:49:20.977Z,94306.51
2019-04-11T03:51:43.632Z,94313.66
2019-04-11T03:54:17.796Z,94308.14
2019-04-11T03:56:51.169Z,94304.55
2019-04-11T03:59:23.674Z,94311.20
2019-04-11T04:01:57.479Z,94306.76
2019-04-11T04:04:29.149Z,94309.99
2019-04-11T04:07:02.452Z,94313.19
2019-04-11T04:09:35.299Z,94312.55
2019-04-11T04:12:09.299Z,94308.64
2019-04-11T04:15:04.609Z,94313.14
2019-04-11T04:17:47.567Z,94319.97
2019-04-11T04:20:37.177Z,94329.06
2019-04-11T04:23:16.629Z,94326.16
2019-04-11T04:25:49.356Z,94327.12
2019-04-11T04:28:21.890Z,94334.51
2019-04-11T04:30:54.524Z,94333.89
2019-04-11T04:33:26.575Z,94335.21
2019-04-11T04:36:00.258Z,94332.98
2019-04-11T04:38:33.841Z,94340.00
2019-04-11T04:41:21.164Z,94337.39
2019-04-11T04:43:41.949Z,94338.69
2019-04-11T04:46:29.997Z,94338.53
2019-04-11T04:48:49.251Z,94340.98
2019-04-11T04:51:23.792Z,94345.70
2019-04-11T04:53:55.525Z,94347.82
2019-04-11T04:56:31.615Z,94345.72
2019-04-11T04:59:02.628Z,94347.84
2019-04-11T05:01:35.112Z,94351.98
2019-04-11T05:04:06.896Z,94353.28
2019-04-11T05:06:40.669Z,94350.36
2019-04-11T05:09:12.887Z,94353.11
2019-04-11T05:11:44.721Z,94355.91
2019-04-11T05:14:15.997Z,94354.29
2019-04-11T05:16:48.217Z,94358.23
2019-04-11T05:19:19.425Z,94359.55
2019-04-11T05:21:50.961Z,94358.56
2019-04-11T05:24:23.191Z,94354.67
2019-04-11T05:26:55.831Z,94364.11
2019-04-11T05:29:27.663Z,94364.60
2019-04-11T05:31:59.253Z,94367.36
2019-04-11T05:34:30.457Z,94360.53
2019-04-11T05:37:01.992Z,94361.36
2019-04-11T05:39:33.883Z,94359.57
2019-04-11T05:42:05.366Z,94360.55
2019-04-11T05:44:40.184Z,94356.97
2019-04-11T05:47:15.858Z,94361.22
2019-04-11T05:49:49.289Z,94361.22
2019-04-11T05:52:20.896Z,94363.63
2019-04-11T05:54:54.881Z,94366.72
2019-04-11T05:57:33.617Z,94365.58
2019-04-11T06:00:00.159Z,94364.12
2019-04-11T06:02:41.713Z,94359.25
2019-04-11T06:05:19.345Z,94355.50
2019-04-11T06:07:57.772Z,94357.47
2019-04-11T06:10:42.555Z,94351.43
2019-04-11T06:13:24.570Z,94365.41
2019-04-11T06:16:00.603Z,94364.92
2019-04-11T06:18:48.124Z,94368.01
2019-04-11T06:21:24.405Z,94368.98
2019-04-11T06:24:03.647Z,94364.09
2019-04-11T06:26:44.964Z,94368.32
2019-04-11T06:29:35.530Z,94364.09
2019-04-11T06:32:26.245Z,94360.67
2019-04-11T06:35:06.119Z,94360.53
2019-04-11T06:37:56.304Z,94358.09
2019-04-11T06:40:32.763Z,94360.69
2019-04-11T06:43:21.815Z,94372.05
2019-04-11T06:46:15.154Z,94372.55
2019-04-11T06:49:14.034Z,94370.95
2019-04-11T06:51:53.413Z,94377.13
2019-04-11T06:54:56.217Z,94372.28
2019-04-11T06:57:29.908Z,94378.29
2019-04-11T07:00:02.891Z,94376.02
2019-04-11T07:02:38.915Z,94382.69
2019-04-11T07:05:11.862Z,94376.18
2019-04-11T07:07:46.712Z,94374.05
2019-04-11T07:10:22.247Z,94379.27
2019-04-11T07:13:16.388Z,94379.06
2019-04-11T07:15:53.449Z,94382.30
2019-04-11T07:18:44.180Z,94378.34
2019-04-11T07:21:15.688Z,94381.52
2019-04-11T07:24:05.378Z,94380.02
2019-04-11T07:26:50.088Z,94389.84
2019-04-11T07:29:46.483Z,94378.59
2019-04-11T07:32:20.228Z,94381.14
2019-04-11T07:35:29.325Z,94379.52
2019-04-11T07:38:01.177Z,94383.98
2019-04-11T07:40:56.070Z,94387.17
2019-04-11T07:43:29.810Z,94380.29
2019-04-11T07:46:24.578Z,94394.75
2019-04-11T07:48:59.439Z,94388.63
2019-04-11T07:51:50.786Z,94386.09
2019-04-11T07:54:23.828Z,94385.23
2019-04-11T07:57:05.496Z,94382.01
2019-04-11T07:59:59.954Z,94395.03
2019-04-11T08:02:49.241Z,94385.20
2019-04-11T08:05:40.903Z,94387.74
2019-04-11T08:08:32.392Z,94397.58
2019-04-11T08:11:11.524Z,94397.58
2019-04-11T08:14:13.827Z,94399.56
2019-04-11T08:17:09.326Z,94397.52
2019-04-11T08:20:15.190Z,94402.59
2019-04-11T08:22:49.614Z,94403.36
2019-04-11T08:25:45.751Z,94398.59
2019-04-11T08:28:18.407Z,94403.08
2019-04-11T08:30:55.260Z,94399.84
2019-04-11T08:33:27.082Z,94400.55
2019-04-11T08:36:35.291Z,94401.88
2019-04-11T08:39:17.295Z,94386.07
2019-04-11T08:42:13.307Z,94392.59
2019-04-11T08:44:46.096Z,94397.27
2019-04-11T08:47:20.296Z,94399.72
2019-04-11T08:49:54.158Z,94407.28
2019-04-11T08:52:52.062Z,94405.30
2019-04-11T08:55:43.536Z,94403.39
2019-04-11T08:58:16.485Z,94398.20
2019-04-11T09:00:56.302Z,94399.27
2019-04-11T09:03:59.294Z,94408.11
2019-04-11T09:06:26.244Z,94397.98
2019-04-11T09:09:15.317Z,94403.34
2019-04-11T09:11:49.471Z,94410.66
2019-04-11T09:14:38.153Z,94403.56
2019-04-11T09:17:12.325Z,94404.02
2019-04-11T09:20:14.224Z,94405.80
2019-04-11T09:22:59.466Z,94408.75
2019-04-11T09:26:08.130Z,94401.13
2019-04-11T09:28:51.477Z,94400.33
2019-04-11T09:31:41.865Z,94416.42
2019-04-11T09:34:44.205Z,94409.81
2019-04-11T09:37:23.226Z,94418.91
2019-04-11T09:40:20.009Z,94419.77
2019-04-11T09:43:09.866Z,94419.77
2019-04-11T09:45:59.762Z,94411.61
2019-04-11T09:48:42.271Z,94408.52
2019-04-11T09:51:42.290Z,94407.30
2019-04-11T09:54:32.440Z,94408.52
2019-04-11T09:57:36.493Z,94414.42
2019-04-11T10:00:28.743Z,94407.47
2019-04-11T10:03:17.545Z,94403.68
2019-04-11T10:05:54.572Z,94389.81
2019-04-11T10:08:37.321Z,94404.40
2019-04-11T10:11:26.201Z,94414.36
2019-04-11T10:14:17.644Z,94400.86
2019-04-11T10:17:06.784Z,94414.42
2019-04-11T10:20:00.384Z,94404.22
2019-04-11T10:22:49.006Z,94416.45
2019-04-11T10:25:28.265Z,94404.70
2019-04-11T10:28:24.972Z,94408.05
2019-04-11T10:31:16.511Z,94406.81
2019-04-11T10:34:19.617Z,94421.58
2019-04-11T10:37:09.731Z,94410.39
2019-04-11T10:40:00.368Z,94407.28
2019-04-11T10:42:32.830Z,94413.40
2019-04-11T10:45:29.274Z,94421.47
2019-04-11T10:48:03.315Z,94416.23
2019-04-11T10:51:12.849Z,94418.53
2019-04-11T10:53:44.295Z,94403.62
2019-04-11T10:56:39.366Z,94418.78
2019-04-11T10:59:11.149Z,94419.03
2019-04-11T11:02:00.303Z,94419.26
2019-04-11T11:04:38.781Z,94422.88
2019-04-11T11:07:13.188Z,94428.48
2019-04-11T11:10:04.682Z,94427.73
2019-04-11T11:13:04.284Z,94425.22
2019-04-11T11:15:42.608Z,94425.17
2019-04-11T11:18:54.132Z,94433.40
2019-04-11T11:21:09.334Z,94434.25
2019-04-11T11:24:17.737Z,94434.61
2019-04-11T11:26:54.516Z,94435.59
2019-04-11T11:29:47.600Z,94439.25
2019-04-11T11:32:38.006Z,94432.84
2019-04-11T11:35:34.283Z,94433.15
2019-04-11T11:38:20.126Z,94428.16
2019-04-11T11:41:16.388Z,94428.04
2019-04-11T11:43:48.804Z,94424.16
2019-04-11T11:46:45.213Z,94417.11
2019-04-11T11:49:37.622Z,94421.81
2019-04-11T11:52:13.559Z,94422.11
2019-04-11T11:54:53.657Z,94432.23
2019-04-11T11:57:39.272Z,94424.73
2019-04-11T12:00:17.015Z,94416.36
2019-04-11T12:03:03.654Z,94413.95
2019-04-11T12:05:52.185Z,94424.09
2019-04-11T12:08:44.319Z,94420.35
2019-04-11T12:11:14.215Z,94415.16
2019-04-11T12:14:07.634Z,94422.37
2019-04-11T12:16:48.311Z,94413.30
2019-04-11T12:19:26.867Z,94411.44
2019-04-11T12:21:58.601Z,94404.62
2019-04-11T12:25:00.670Z,94407.24
2019-04-11T12:28:00.449Z,94408.06
2019-04-11T12:30:50.450Z,94398.72
2019-04-11T12:33:39.525Z,94401.78
2019-04-11T12:36:22.996Z,94400.50
2019-04-11T12:39:25.445Z,94383.61
2019-04-11T12:42:18.529Z,94375.69
2019-04-11T12:45:08.397Z,94372.28
2019-04-11T12:47:48.942Z,94370.45
2019-04-11T12:50:37.963Z,94370.45
2019-04-11T12:53:14.230Z,94371.84
2019-04-11T12:56:22.373Z,94371.84
2019-04-11T12:59:05.539Z,94364.34
2019-04-11T13:01:58.777Z,94366.55
2019-04-11T13:04:35.127Z,94362.44
2019-04-11T13:07:28.253Z,94362.44
2019-04-11T13:10:05.815Z,94360.31
2019-04-11T13:13:13.697Z,94365.16
2019-04-11T13:15:48.125Z,94359.63
2019-04-11T13:18:53.487Z,94355.84
2019-04-11T13:21:27.601Z,94348.59
2019-04-11T13:24:20.379Z,94348.59
2019-04-11T13:27:19.216Z,94346.20
2019-04-11T13:30:09.257Z,94340.05
2019-04-11T13:32:48.489Z,94348.07
2019-04-11T13:35:38.338Z,94350.41
2019-04-11T13:38:17.301Z,94350.89
2019-04-11T13:41:07.067Z,94350.69
2019-04-11T13:44:09.895Z,94350.69
2019-04-11T13:46:59.844Z,94344.96
2019-04-11T13:49:48.517Z,94341.83
2019-04-11T13:52:38.841Z,94343.95
2019-04-11T13:55:15.921Z,94351.45
2019-04-11T13:58:05.858Z,94347.08
2019-04-11T14:00:41.869Z,94340.69
2019-04-11T14:03:31.667Z,94349.29
2019-04-11T14:06:07.619Z,94349.29
2019-04-11T14:09:06.859Z,94350.69
2019-04-11T14:11:42.047Z,94342.67
2019-04-11T14:14:32.966Z,94339.88
2019-04-11T14:17:23.900Z,94333.42
2019-04-11T14:20:29.149Z,94339.91
2019-04-11T14:23:15.173Z,94338.69
2019-04-11T14:26:15.161Z,94329.50
2019-04-11T14:29:04.856Z,94334.65
2019-04-11T14:32:00.134Z,94330.32
2019-04-11T14:34:48.917Z,94328.77
2019-04-11T14:37:45.102Z,94328.95
2019-04-11T14:40:47.348Z,94328.69
2019-04-11T14:43:26.918Z,94327.66
2019-04-11T14:46:19.935Z,94334.03
2019-04-11T14:48:52.846Z,94325.42
2019-04-11T14:51:40.053Z,94325.25
2019-04-11T14:54:17.349Z,94330.30
2019-04-11T14:56:53.415Z,94319.06
2019-04-11T14:59:49.313Z,94319.78
2019-04-11T15:02:30.345Z,94319.78
2019-04-11T15:05:26.037Z,94324.56
2019-04-11T15:07:57.783Z,94324.56
2019-04-11T15:10:48.306Z,94326.55
2019-04-11T15:13:24.398Z,94326.41
2019-04-11T15:16:13.206Z,94316.73
2019-04-11T15:18:49.743Z,94314.06
2019-04-11T15:21:48.600Z,94314.06
2019-04-11T15:24:20.578Z,94307.22
2019-04-11T15:27:10.779Z,94299.56
2019-04-11T15:29:45.489Z,94299.56
2019-04-11T15:32:30.117Z,94301.27
2019-04-11T15:35:13.019Z,94301.27
2019-04-11T15:38:09.118Z,94302.67
2019-04-11T15:40:46.575Z,94294.52
2019-04-11T15:43:43.432Z,94292.90
2019-04-11T15:46:43.126Z,94293.80
2019-04-11T15:49:46.467Z,94296.94
2019-04-11T15:52:20.171Z,94301.47
2019-04-11T15:55:12.856Z,94300.48
2019-04-11T15:57:47.739Z,94299.47
2019-04-11T16:00:56.194Z,94301.47
2019-04-11T16:03:27.374Z,94299.65
2019-04-11T16:06:15.761Z,94298.45
2019-04-11T16:08:52.295Z,94290.38
2019-04-11T16:11:54.190Z,94299.35
2019-04-11T16:14:30.308Z,94296.93
2019-04-11T16:17:35.365Z,94298.54
2019-04-11T16:20:20.432Z,94290.36
2019-04-11T16:23:03.921Z,94301.50
2019-04-11T16:25:34.939Z,94298.66
2019-04-11T16:28:42.406Z,94299.86
2019-04-11T16:31:14.183Z,94298.54
2019-04-11T16:34:15.875Z,94303.50
2019-04-11T16:37:04.392Z,94304.52
2019-04-11T16:39:43.259Z,94305.20
2019-04-11T16:42:15.569Z,94311.09
2019-04-11T16:45:25.180Z,94314.82
2019-04-11T16:48:04.400Z,94315.59
2019-04-11T16:50:35.546Z,94324.19
2019-04-11T16:53:10.506Z,94324.19
2019-04-11T16:55:42.424Z,94325.59
2019-04-11T16:58:15.219Z,94325.50
2019-04-11T17:00:45.544Z,94328.80
2019-04-11T17:03:17.369Z,94328.38
2019-04-11T17:06:07.183Z,94324.81
2019-04-11T17:08:56.406Z,94337.50
2019-04-11T17:11:28.813Z,94341.00
2019-04-11T17:13:59.656Z,94341.00
2019-04-11T17:16:31.019Z,94344.03
2019-04-11T17:19:04.952Z,94347.11
2019-04-11T17:21:43.104Z,94344.37
2019-04-11T17:24:07.380Z,94344.37
2019-04-11T17:26:38.302Z,94349.03
2019-04-11T17:29:09.481Z,94358.17
2019-04-11T17:31:40.660Z,94355.88
2019-04-11T17:34:12.146Z,94355.52
2019-04-11T17:36:43.154Z,94360.80
2019-04-11T17:39:14.502Z,94364.81
2019-04-11T17:41:45.507Z,94364.81
2019-04-11T17:44:16.350Z,94373.08
2019-04-11T17:46:47.372Z,94379.47
2019-04-11T17:49:18.633Z,94376.95
2019-04-11T17:51:55.844Z,94394.37
2019-04-11T17:54:24.677Z,94394.37
2019-04-11T17:56:58.718Z,94397.52
2019-04-11T17:59:29.155Z,94398.87
2019-04-11T18:02:00.115Z,94398.87
2019-04-11T18:04:32.260Z,94408.36
2019-04-11T18:07:03.197Z,94416.06
2019-04-11T18:09:34.045Z,94416.06
2019-04-11T18:12:05.612Z,94421.20
2019-04-11T18:14:36.562Z,94427.54
2019-04-11T18:17:07.592Z,94427.69
2019-04-11T18:19:38.706Z,94428.50
2019-04-11T18:22:13.353Z,94435.13
2019-04-11T18:24:43.186Z,94434.73
2019-04-11T18:27:14.673Z,94438.61
2019-04-11T18:29:45.686Z,94446.05
2019-04-11T18:32:16.864Z,94445.80
2019-04-11T18:34:47.838Z,94451.27
2019-04-11T18:37:18.714Z,94457.09
2019-04-11T18:39:49.726Z,94453.42
2019-04-11T18:42:20.657Z,94457.77
2019-04-11T18:44:52.063Z,94457.27
2019-04-11T18:47:23.228Z,94464.97
2019-04-11T18:49:54.132Z,94465.06
2019-04-11T18:52:26.537Z,94464.02
2019-04-11T18:54:58.015Z,94466.80
2019-04-11T18:57:29.348Z,94468.47
2019-04-11T19:00:02.348Z,94467.23
2019-04-11T19:02:33.940Z,94469.97
2019-04-11T19:05:06.070Z,94464.19
2019-04-11T19:07:38.468Z,94473.85
2019-04-11T19:10:14.575Z,94481.40
2019-04-11T19:12:45.931Z,94477.33
2019-04-11T19:15:17.099Z,94480.98
2019-04-11T19:17:48.403Z,94471.73
2019-04-11T19:20:20.101Z,94473.70
2019-04-11T19:22:51.097Z,94470.78
2019-04-11T19:25:22.233Z,94475.44
2019-04-11T19:27:54.370Z,94473.56
2019-04-11T19:30:27.057Z,94465.58
2019-04-11T19:32:59.593Z,94478.48
2019-04-11T19:35:30.998Z,94477.68
2019-04-11T19:38:02.582Z,94480.80
2019-04-11T19:40:34.206Z,94480.57
2019-04-11T19:43:05.582Z,94477.22
2019-04-11T19:45:36.885Z,94481.91
2019-04-11T19:48:08.586Z,94480.68
2019-04-11T19:50:40.187Z,94487.99
2019-04-11T19:53:11.952Z,94482.06
2019-04-11T19:56:05.405Z,94479.13
2019-04-11T19:58:37.370Z,94478.63
2019-04-11T20:01:09.936Z,94475.83
2019-04-11T20:03:41.305Z,94482.18
2019-04-11T20:06:13.409Z,94479.84
2019-04-11T20:08:44.779Z,94479.80
2019-04-11T20:11:15.966Z,94482.55
2019-04-11T20:13:47.400Z,94484.37
2019-04-11T20:16:18.351Z,94473.78
2019-04-11T20:18:51.357Z,94474.13
2019-04-11T20:21:22.667Z,94478.80
2019-04-11T20:23:53.812Z,94476.12
2019-04-11T20:26:33.838Z,94475.30
2019-04-11T20:29:05.047Z,94471.25
2019-04-11T20:31:36.196Z,94475.78
2019-04-11T20:34:08.200Z,94473.20
2019-04-11T20:36:41.386Z,94478.45
2019-04-11T20:39:14.981Z,94480.22
2019-04-11T20:41:45.202Z,94480.42
2019-04-11T20:44:16.572Z,94475.98
2019-04-11T20:46:48.006Z,94486.25
2019-04-11T20:49:18.981Z,94488.28
2019-04-11T20:51:50.106Z,94492.41
2019-04-11T20:54:21.103Z,94494.20
2019-04-11T20:56:52.475Z,94491.19
2019-04-11T20:59:33.954Z,94490.28
2019-04-11T21:01:57.001Z,94494.36
2019-04-11T21:04:28.061Z,94488.12
2019-04-11T21:07:01.763Z,94491.36
2019-04-11T21:09:33.242Z,94490.89
2019-04-11T21:12:07.485Z,94496.09
2019-04-11T21:14:37.923Z,94495.33
2019-04-11T21:17:09.009Z,94498.45
2019-04-11T21:19:40.553Z,94491.07
2019-04-11T21:22:11.726Z,94506.17
2019-04-11T21:24:44.067Z,94501.61
2019-04-11T21:27:15.131Z,94498.22
2019-04-11T21:29:46.075Z,94497.89
2019-04-11T21:32:17.286Z,94492.39
2019-04-11T21:34:48.276Z,94497.00
2019-04-11T21:37:19.720Z,94496.50
2019-04-11T21:39:50.822Z,94493.88
2019-04-11T21:42:22.467Z,94492.94
2019-04-11T21:44:53.640Z,94493.26
2019-04-11T21:47:25.056Z,94499.45
2019-04-11T21:49:56.053Z,94497.80
2019-04-11T21:52:27.169Z,94498.55
2019-04-11T21:54:58.534Z,94494.31
2019-04-11T21:57:29.743Z,94493.81
2019-04-11T22:00:01.601Z,94491.70
2019-04-11T22:02:34.318Z,94493.01
2019-04-11T22:05:06.044Z,94488.28
2019-04-11T22:07:37.309Z,94492.06
2019-04-11T22:10:09.070Z,94479.70
2019-04-11T22:12:40.572Z,94480.34
2019-04-11T22:15:12.572Z,94478.94
2019-04-11T22:17:45.500Z,94485.49
2019-04-11T22:20:17.480Z,94489.27
2019-04-11T22:22:48.379Z,94491.28
2019-04-11T22:25:19.720Z,94490.95
2019-04-11T22:27:51.082Z,94488.52
2019-04-11T22:30:25.332Z,94484.16
2019-04-11T22:33:07.403Z,94482.82
2019-04-11T22:35:38.659Z,94487.27
2019-04-11T22:38:10.941Z,94492.13
2019-04-11T22:40:42.163Z,94486.77
2019-04-11T22:43:24.201Z,94488.08
2019-04-11T22:45:47.033Z,94487.09
2019-04-11T22:48:18.137Z,94486.11
2019-04-11T22:50:49.350Z,94481.56
2019-04-11T22:53:20.690Z,94481.06
2019-04-11T22:55:51.894Z,94475.53
2019-04-11T22:58:23.276Z,94483.67
2019-04-11T23:00:54.605Z,94481.06
2019-04-11T23:03:32.648Z,94483.17
2019-04-11T23:06:03.950Z,94474.68
2019-04-11T23:08:35.580Z,94475.03
2019-04-11T23:11:06.798Z,94472.57
2019-04-11T23:13:38.143Z,94472.42
2019-04-11T23:16:09.711Z,94467.20
2019-04-11T23:18:41.907Z,94466.05
2019-04-11T23:21:15.048Z,94467.57
2019-04-11T23:23:46.499Z,94470.64
2019-04-11T23:26:17.962Z,94470.39
2019-04-11T23:28:49.079Z,94475.61
2019-04-11T23:31:21.091Z,94465.36
2019-04-11T23:33:52.674Z,94470.25
2019-04-11T23:36:24.081Z,94468.48
2019-04-11T23:38:55.752Z,94475.48
2019-04-11T23:41:27.304Z,94467.63
2019-04-11T23:43:58.871Z,94468.27
2019-04-11T23:46:30.399Z,94471.20
2019-04-11T23:49:02.057Z,94470.22
2019-04-11T23:51:33.283Z,94462.09
2019-04-11T23:54:04.996Z,94467.63
2019-04-11T23:56:36.237Z,94469.70
2019-04-11T23:59:07.545Z,94462.73
